createdAt,value
2022-08-03T00:00:35.677Z,100.00
2022-08-03T00:03:03.362Z,100.00
2022-08-03T00:05:33.241Z,100.00
2022-08-03T00:08:01.148Z,100.00
2022-08-03T00:10:28.566Z,100.00
2022-08-03T00:12:55.567Z,100.00
2022-08-03T00:15:22.644Z,100.00
2022-08-03T00:17:55.890Z,100.00
2022-08-03T00:20:25.452Z,100.00
2022-08-03T00:22:55.711Z,100.00
2022-08-03T00:25:22.900Z,100.00
2022-08-03T00:27:53.069Z,100.00
2022-08-03T00:30:23.212Z,100.00
2022-08-03T00:35:50.235Z,100.00
2022-08-03T00:38:18.812Z,100.00
2022-08-03T00:40:51.646Z,100.00
2022-08-03T00:43:21.353Z,100.00
2022-08-03T00:45:48.351Z,100.00
2022-08-03T00:48:27.251Z,100.00
2022-08-03T00:51:00.888Z,100.00
2022-08-03T00:53:33.926Z,100.00
2022-08-03T00:56:06.449Z,100.00
2022-08-03T00:58:33.571Z,100.00
2022-08-03T01:01:05.209Z,100.00
2022-08-03T01:03:34.862Z,100.00
2022-08-03T01:06:08.520Z,100.00
2022-08-03T01:08:44.172Z,100.00
2022-08-03T01:11:17.600Z,100.00
2022-08-03T01:14:18.179Z,100.00
2022-08-03T01:17:00.412Z,100.00
2022-08-03T01:19:49.094Z,100.00
2022-08-03T01:22:29.227Z,100.00
2022-08-03T01:25:30.812Z,100.00
2022-08-03T01:28:22.638Z,100.00
2022-08-03T01:30:56.880Z,100.00
2022-08-03T01:33:29.104Z,100.00
2022-08-03T01:36:05.473Z,100.00
2022-08-03T01:38:43.104Z,100.00
2022-08-03T01:41:19.568Z,100.00
2022-08-03T01:44:27.005Z,100.00
2022-08-03T01:46:40.698Z,100.00
2022-08-03T01:49:19.138Z,100.00
2022-08-03T01:51:58.470Z,100.00
2022-08-03T01:54:35.354Z,100.00
2022-08-03T01:57:04.450Z,100.00
2022-08-03T01:59:36.146Z,100.00
2022-08-03T02:02:32.117Z,100.00
2022-08-03T02:05:00.303Z,100.00
2022-08-03T02:07:30.654Z,100.00
2022-08-03T02:09:59.945Z,100.00
2022-08-03T02:12:36.307Z,100.00
2022-08-03T02:15:04.632Z,100.00
2022-08-03T02:17:39.693Z,100.00
2022-08-03T02:20:12.402Z,100.00
2022-08-03T02:22:45.235Z,100.00
2022-08-03T02:25:14.457Z,100.00
2022-08-03T02:27:49.442Z,100.00
2022-08-03T02:30:18.869Z,100.00
2022-08-03T02:32:52.687Z,100.00
2022-08-03T02:36:40.858Z,100.00
2022-08-03T02:39:11.346Z,100.00
2022-08-03T02:41:43.632Z,100.00
2022-08-03T02:44:12.473Z,100.00
2022-08-03T02:46:43.175Z,100.00
2022-08-03T02:49:49.562Z,100.00
2022-08-03T02:51:59.983Z,100.00
2022-08-03T02:54:28.858Z,100.00
2022-08-03T02:56:58.657Z,100.00
2022-08-03T02:59:27.209Z,100.00
2022-08-03T03:01:55.509Z,100.00
2022-08-03T03:04:24.201Z,100.00
2022-08-03T03:06:57.748Z,100.00
2022-08-03T03:09:25.243Z,100.00
2022-08-03T03:12:09.988Z,100.00
2022-08-03T03:14:37.640Z,100.00
2022-08-03T03:17:06.735Z,100.00
2022-08-03T03:19:34.438Z,100.00
2022-08-03T03:22:03.708Z,100.00
2022-08-03T03:24:31.086Z,100.00
2022-08-03T03:26:59.054Z,100.00
2022-08-03T03:29:26.129Z,100.00
2022-08-03T03:31:53.652Z,100.00
2022-08-03T03:34:21.153Z,100.00
2022-08-03T03:36:48.129Z,100.00
2022-08-03T03:39:15.843Z,100.00
2022-08-03T03:41:43.502Z,100.00
2022-08-03T03:44:10.439Z,100.00
2022-08-03T03:46:39.063Z,100.00
2022-08-03T03:49:07.636Z,100.00
2022-08-03T03:51:35.170Z,100.00
2022-08-03T03:54:04.738Z,100.00
2022-08-03T03:56:32.062Z,100.00
2022-08-03T03:58:58.991Z,100.00
2022-08-03T04:01:25.911Z,100.00
2022-08-03T04:03:52.722Z,100.00
2022-08-03T04:06:38.226Z,100.00
2022-08-03T04:09:23.248Z,100.00
2022-08-03T04:11:57.776Z,100.00
2022-08-03T04:14:32.764Z,100.00
2022-08-03T04:17:03.629Z,100.00
2022-08-03T04:19:40.533Z,100.00
2022-08-03T04:22:10.890Z,100.00
2022-08-03T04:24:44.906Z,100.00
2022-08-03T04:27:14.308Z,100.00
2022-08-03T04:29:48.209Z,100.00
2022-08-03T04:32:17.238Z,100.00
2022-08-03T04:37:46.534Z,100.00
2022-08-03T04:40:30.176Z,100.00
2022-08-03T04:42:58.933Z,100.00
2022-08-03T04:45:29.966Z,100.00
2022-08-03T04:48:00.425Z,100.00
2022-08-03T04:50:30.693Z,100.00
2022-08-03T04:52:57.711Z,100.00
2022-08-03T04:58:13.093Z,100.00
2022-08-03T05:00:39.953Z,100.00
2022-08-03T05:03:25.135Z,100.00
2022-08-03T05:06:10.968Z,97.72
2022-08-03T05:09:08.526Z,94.31
2022-08-03T05:11:37.914Z,89.25
2022-08-03T05:14:04.980Z,83.96
2022-08-03T05:16:32.011Z,83.16
2022-08-03T05:18:58.665Z,81.90
2022-08-03T05:21:25.687Z,79.82
2022-08-03T05:24:08.418Z,76.93
2022-08-03T05:26:35.293Z,71.95
2022-08-03T05:29:10.716Z,67.14
2022-08-03T05:31:37.443Z,61.75
2022-08-03T05:34:04.276Z,57.21
2022-08-03T05:36:30.861Z,55.09
2022-08-03T05:39:02.232Z,53.61
2022-08-03T05:41:36.966Z,53.50
2022-08-03T05:44:04.736Z,53.33
2022-08-03T05:46:31.728Z,55.60
2022-08-03T05:48:58.351Z,53.28
2022-08-03T05:51:24.996Z,57.15
2022-08-03T05:53:51.654Z,57.15
2022-08-03T05:56:23.706Z,55.53
2022-08-03T05:58:52.364Z,55.30
2022-08-03T06:01:22.076Z,52.23
2022-08-03T06:03:50.345Z,50.74
2022-08-03T06:06:17.775Z,50.03
2022-08-03T06:08:45.557Z,51.12
2022-08-03T06:11:12.870Z,48.63
2022-08-03T06:13:39.918Z,45.21
2022-08-03T06:16:06.812Z,41.82
2022-08-03T06:18:33.553Z,40.65
2022-08-03T06:21:14.540Z,39.71
2022-08-03T06:23:53.117Z,40.77
2022-08-03T06:26:21.691Z,38.27
2022-08-03T06:28:52.911Z,37.14
2022-08-03T06:31:24.047Z,38.94
2022-08-03T06:34:32.195Z,37.79
2022-08-03T06:38:35.875Z,41.18
2022-08-03T06:41:02.448Z,42.44
2022-08-03T06:43:29.166Z,43.22
2022-08-03T06:46:02.363Z,43.87
2022-08-03T06:48:29.103Z,45.53
2022-08-03T06:50:55.668Z,49.00
2022-08-03T06:53:22.671Z,49.88
2022-08-03T06:55:54.220Z,50.05
2022-08-03T06:58:21.365Z,49.19
2022-08-03T07:00:48.118Z,47.63
2022-08-03T07:03:15.217Z,45.79
2022-08-03T07:05:43.581Z,44.00
2022-08-03T07:08:10.562Z,42.86
2022-08-03T07:10:37.387Z,41.08
2022-08-03T07:13:05.027Z,42.57
2022-08-03T07:15:38.327Z,44.10
2022-08-03T07:18:24.648Z,43.11
2022-08-03T07:20:57.486Z,42.09
2022-08-03T07:23:24.370Z,41.74
2022-08-03T07:25:51.204Z,40.76
2022-08-03T07:28:18.086Z,39.99
2022-08-03T07:30:44.904Z,37.82
2022-08-03T07:33:11.668Z,38.34
2022-08-03T07:35:38.800Z,38.93
2022-08-03T07:38:05.619Z,38.61
2022-08-03T07:40:32.375Z,38.82
2022-08-03T07:42:59.706Z,39.01
2022-08-03T07:45:26.988Z,38.74
2022-08-03T07:47:54.252Z,39.70
2022-08-03T07:50:22.013Z,42.43
2022-08-03T07:52:49.937Z,42.93
2022-08-03T07:55:18.225Z,39.57
2022-08-03T07:57:44.813Z,38.42
2022-08-03T08:00:18.195Z,37.20
2022-08-03T08:02:46.247Z,35.02
2022-08-03T08:05:13.242Z,34.93
2022-08-03T08:07:40.502Z,33.92
2022-08-03T08:10:10.156Z,34.16
2022-08-03T08:12:39.000Z,33.87
2022-08-03T08:15:06.547Z,31.09
2022-08-03T08:17:42.545Z,31.35
2022-08-03T08:20:10.920Z,30.45
2022-08-03T08:22:37.548Z,30.89
2022-08-03T08:25:07.475Z,30.11
2022-08-03T08:28:29.975Z,31.17
2022-08-03T08:30:23.585Z,31.17
2022-08-03T08:32:51.095Z,31.45
2022-08-03T08:35:19.082Z,31.51
2022-08-03T08:39:34.310Z,34.09
2022-08-03T08:42:01.430Z,32.22
2022-08-03T08:44:30.067Z,33.36
2022-08-03T08:46:58.038Z,33.67
2022-08-03T08:49:28.164Z,33.37
2022-08-03T08:52:00.820Z,33.92
2022-08-03T08:54:29.778Z,34.12
2022-08-03T08:56:59.438Z,34.57
2022-08-03T08:59:26.548Z,37.26
2022-08-03T09:02:13.540Z,34.08
2022-08-03T09:04:40.354Z,33.57
2022-08-03T09:07:19.576Z,33.49
2022-08-03T09:10:12.146Z,35.31
2022-08-03T09:12:42.995Z,35.50
2022-08-03T09:15:28.276Z,33.18
2022-08-03T09:17:58.162Z,31.72
2022-08-03T09:20:27.012Z,32.16
2022-08-03T09:23:17.850Z,32.20
2022-08-03T09:25:59.865Z,32.58
2022-08-03T09:28:56.540Z,33.12
2022-08-03T09:31:29.083Z,32.45
2022-08-03T09:33:59.885Z,32.67
2022-08-03T09:36:39.795Z,33.72
2022-08-03T09:39:11.379Z,36.06
2022-08-03T09:41:40.296Z,41.45
2022-08-03T09:44:07.615Z,40.12
2022-08-03T09:46:56.678Z,39.24
2022-08-03T09:49:23.883Z,37.88
2022-08-03T09:52:32.258Z,38.44
2022-08-03T09:54:37.376Z,37.95
2022-08-03T09:57:04.618Z,39.47
2022-08-03T09:59:33.261Z,38.44
2022-08-03T10:02:00.720Z,39.43
2022-08-03T10:04:28.118Z,39.92
2022-08-03T10:07:11.347Z,41.90
2022-08-03T10:09:38.233Z,44.48
2022-08-03T10:12:09.799Z,44.20
2022-08-03T10:14:39.314Z,49.33
2022-08-03T10:17:06.216Z,48.02
2022-08-03T10:19:33.501Z,50.46
2022-08-03T10:22:07.521Z,48.17
2022-08-03T10:24:36.413Z,44.64
2022-08-03T10:27:08.335Z,43.15
2022-08-03T10:29:39.000Z,48.98
2022-08-03T10:32:14.695Z,44.02
2022-08-03T10:34:44.605Z,43.80
2022-08-03T10:40:48.520Z,43.76
2022-08-03T10:43:59.350Z,45.08
2022-08-03T10:46:27.253Z,46.14
2022-08-03T10:48:54.538Z,48.00
2022-08-03T10:51:23.193Z,47.15
2022-08-03T10:53:54.777Z,47.12
2022-08-03T10:56:53.282Z,46.84
2022-08-03T10:59:46.873Z,51.24
2022-08-03T11:02:15.061Z,49.93
2022-08-03T11:04:42.941Z,48.67
2022-08-03T11:07:15.926Z,48.21
2022-08-03T11:09:44.902Z,50.39
2022-08-03T11:12:31.208Z,49.28
2022-08-03T11:15:02.617Z,50.40
2022-08-03T11:17:29.188Z,51.04
2022-08-03T11:19:57.034Z,51.78
2022-08-03T11:22:25.247Z,53.35
2022-08-03T11:24:54.188Z,51.08
2022-08-03T11:27:27.946Z,50.74
2022-08-03T11:30:14.828Z,51.93
2022-08-03T11:32:46.565Z,50.72
2022-08-03T11:35:24.611Z,49.20
2022-08-03T11:38:03.545Z,44.91
2022-08-03T11:40:40.758Z,45.87
2022-08-03T11:43:31.206Z,45.29
2022-08-03T11:46:28.546Z,45.07
2022-08-03T11:49:09.472Z,42.76
2022-08-03T11:51:38.022Z,43.40
2022-08-03T11:54:06.639Z,43.65
2022-08-03T11:56:47.737Z,44.32
2022-08-03T11:59:20.395Z,46.56
2022-08-03T12:01:48.111Z,45.01
2022-08-03T12:04:16.498Z,44.71
2022-08-03T12:06:58.710Z,43.72
2022-08-03T12:09:25.288Z,46.71
2022-08-03T12:11:59.873Z,47.54
2022-08-03T12:14:50.374Z,48.29
2022-08-03T12:17:14.857Z,51.03
2022-08-03T12:19:44.660Z,48.19
2022-08-03T12:22:11.318Z,45.66
2022-08-03T12:24:43.184Z,47.22
2022-08-03T12:27:10.156Z,49.30
2022-08-03T12:29:37.168Z,47.73
2022-08-03T12:32:04.019Z,45.61
2022-08-03T12:34:47.810Z,46.71
2022-08-03T12:37:22.021Z,46.21
2022-08-03T12:41:44.198Z,48.49
2022-08-03T12:44:10.791Z,48.18
2022-08-03T12:46:47.571Z,44.90
2022-08-03T12:49:17.211Z,45.90
2022-08-03T12:51:43.849Z,47.15
2022-08-03T12:54:16.824Z,47.40
2022-08-03T12:57:04.056Z,47.06
2022-08-03T12:59:35.386Z,47.91
2022-08-03T13:02:16.242Z,48.10
2022-08-03T13:04:46.001Z,48.54
2022-08-03T13:07:14.500Z,49.49
2022-08-03T13:09:55.775Z,51.79
2022-08-03T13:12:30.015Z,51.91
2022-08-03T13:14:59.073Z,51.83
2022-08-03T13:17:26.738Z,49.13
2022-08-03T13:19:54.191Z,50.52
2022-08-03T13:22:21.977Z,50.33
2022-08-03T13:24:50.588Z,51.83
2022-08-03T13:28:02.516Z,49.80
2022-08-03T13:30:05.065Z,50.32
2022-08-03T13:32:32.678Z,49.97
2022-08-03T13:34:59.522Z,49.28
2022-08-03T13:37:26.978Z,49.59
2022-08-03T13:39:59.590Z,50.06
2022-08-03T13:42:31.207Z,50.57
2022-08-03T13:44:58.990Z,51.78
2022-08-03T13:47:25.903Z,51.29
2022-08-03T13:49:59.678Z,52.38
2022-08-03T13:52:32.770Z,51.08
2022-08-03T13:55:00.276Z,50.50
2022-08-03T13:58:03.613Z,48.67
2022-08-03T14:00:26.142Z,49.91
2022-08-03T14:02:55.332Z,50.22
2022-08-03T14:05:25.161Z,49.99
2022-08-03T14:07:51.776Z,48.98
2022-08-03T14:10:23.423Z,47.93
2022-08-03T14:12:50.098Z,48.69
2022-08-03T14:15:16.655Z,48.92
2022-08-03T14:17:49.934Z,49.10
2022-08-03T14:20:36.684Z,48.60
2022-08-03T14:23:03.744Z,48.83
2022-08-03T14:25:31.369Z,48.37
2022-08-03T14:28:16.950Z,49.52
2022-08-03T14:30:43.536Z,49.00
2022-08-03T14:33:10.133Z,48.69
2022-08-03T14:35:36.838Z,48.86
2022-08-03T14:38:03.515Z,48.39
2022-08-03T14:42:38.172Z,48.88
2022-08-03T14:45:09.151Z,48.24
2022-08-03T14:50:31.187Z,46.84
2022-08-03T14:50:31.464Z,47.00
2022-08-03T14:53:05.961Z,47.16
2022-08-03T14:55:38.721Z,48.24
2022-08-03T14:58:21.183Z,48.54
2022-08-03T15:00:50.006Z,47.76
2022-08-03T15:03:17.618Z,47.86
2022-08-03T15:05:44.768Z,50.10
2022-08-03T15:08:11.937Z,49.65
2022-08-03T15:10:44.015Z,50.19
2022-08-03T15:13:12.358Z,48.92
2022-08-03T15:15:39.600Z,48.41
2022-08-03T15:18:06.237Z,48.96
2022-08-03T15:20:43.983Z,48.77
2022-08-03T15:23:11.992Z,48.83
2022-08-03T15:26:06.548Z,49.08
2022-08-03T15:28:25.352Z,49.66
2022-08-03T15:30:53.921Z,49.53
2022-08-03T15:33:20.730Z,50.07
2022-08-03T15:35:49.902Z,50.15
2022-08-03T15:38:16.638Z,48.93
2022-08-03T15:40:43.305Z,48.95
2022-08-03T15:43:10.060Z,48.05
2022-08-03T15:45:37.189Z,48.11
2022-08-03T15:48:05.800Z,48.88
2022-08-03T15:50:32.509Z,48.68
2022-08-03T15:52:59.073Z,48.63
2022-08-03T15:55:25.864Z,49.74
2022-08-03T15:59:11.279Z,49.59
2022-08-03T16:00:39.819Z,49.69
2022-08-03T16:03:06.468Z,48.60
2022-08-03T16:05:33.311Z,48.35
2022-08-03T16:08:03.717Z,49.16
2022-08-03T16:10:31.893Z,51.39
2022-08-03T16:13:01.413Z,52.38
2022-08-03T16:15:28.095Z,53.90
2022-08-03T16:17:54.898Z,53.83
2022-08-03T16:20:29.257Z,50.89
2022-08-03T16:23:11.072Z,51.66
2022-08-03T16:25:40.321Z,51.00
2022-08-03T16:28:13.466Z,51.12
2022-08-03T16:30:41.925Z,51.17
2022-08-03T16:33:08.755Z,52.57
2022-08-03T16:35:35.336Z,53.16
2022-08-03T16:38:05.375Z,52.94
2022-08-03T16:43:38.238Z,54.57
2022-08-03T16:46:04.923Z,54.14
2022-08-03T16:48:31.532Z,54.59
2022-08-03T16:50:58.203Z,55.23
2022-08-03T16:53:33.732Z,55.73
2022-08-03T16:56:11.763Z,56.86
2022-08-03T16:58:42.209Z,57.21
2022-08-03T17:01:24.330Z,58.15
2022-08-03T17:04:03.083Z,58.56
2022-08-03T17:06:35.632Z,58.64
2022-08-03T17:09:08.488Z,58.74
2022-08-03T17:11:36.318Z,59.45
2022-08-03T17:14:07.724Z,59.85
2022-08-03T17:16:36.362Z,59.98
2022-08-03T17:19:06.999Z,60.16
2022-08-03T17:21:39.081Z,60.15
2022-08-03T17:24:26.342Z,60.67
2022-08-03T17:26:54.867Z,60.87
2022-08-03T17:29:25.251Z,61.81
2022-08-03T17:31:56.657Z,61.99
2022-08-03T17:34:26.582Z,62.14
2022-08-03T17:37:17.741Z,62.36
2022-08-03T17:39:59.918Z,63.14
2022-08-03T17:42:30.183Z,63.33
2022-08-03T17:45:15.533Z,63.76
2022-08-03T17:47:43.767Z,64.00
2022-08-03T17:50:24.067Z,64.89
2022-08-03T17:53:15.372Z,65.06
2022-08-03T17:56:44.866Z,64.85
2022-08-03T18:02:57.026Z,66.06
2022-08-03T18:05:25.492Z,66.55
2022-08-03T18:08:19.713Z,66.48
2022-08-03T18:11:09.692Z,66.93
2022-08-03T18:13:59.389Z,67.14
2022-08-03T18:16:37.606Z,67.07
2022-08-03T18:19:09.749Z,67.47
2022-08-03T18:22:03.132Z,67.94
2022-08-03T18:24:30.448Z,68.16
2022-08-03T18:26:59.068Z,68.57
2022-08-03T18:29:27.640Z,68.69
2022-08-03T18:32:03.854Z,69.48
2022-08-03T18:34:53.348Z,70.26
2022-08-03T18:37:25.221Z,70.95
2022-08-03T18:39:57.864Z,71.26
2022-08-03T18:44:53.472Z,72.28
2022-08-03T18:48:05.242Z,72.31
2022-08-03T18:50:46.474Z,72.58
2022-08-03T18:54:03.597Z,73.16
2022-08-03T18:56:19.325Z,73.70
2022-08-03T18:59:10.697Z,74.32
2022-08-03T19:01:58.605Z,75.11
2022-08-03T19:04:37.410Z,75.03
2022-08-03T19:07:09.553Z,75.57
2022-08-03T19:09:48.323Z,75.39
2022-08-03T19:12:27.293Z,75.87
2022-08-03T19:15:03.834Z,76.05
2022-08-03T19:17:36.281Z,75.97
2022-08-03T19:20:06.549Z,76.54
2022-08-03T19:22:33.986Z,76.75
2022-08-03T19:25:04.718Z,77.26
2022-08-03T19:27:32.446Z,77.70
2022-08-03T19:30:04.465Z,78.46
2022-08-03T19:32:35.138Z,78.98
2022-08-03T19:35:04.829Z,78.64
2022-08-03T19:37:40.881Z,80.08
2022-08-03T19:40:10.302Z,80.78
2022-08-03T19:42:41.608Z,81.57
2022-08-03T19:45:14.218Z,82.82
2022-08-03T20:26:42.089Z,92.30
2022-08-03T20:29:12.088Z,92.33
2022-08-03T20:31:38.876Z,91.83
2022-08-03T20:34:07.308Z,91.04
2022-08-03T20:36:35.814Z,90.17
2022-08-03T20:39:09.126Z,88.87
2022-08-03T20:41:37.291Z,88.59
2022-08-03T20:56:03.589Z,89.70
2022-08-03T20:58:50.424Z,89.65
2022-08-03T21:01:17.838Z,90.06
2022-08-03T21:03:55.475Z,90.32
2022-08-03T21:06:27.648Z,91.59
2022-08-03T21:09:04.031Z,92.39
2022-08-03T21:11:44.030Z,92.84
2022-08-03T21:13:04.918Z,65.44
2022-08-03T21:14:22.642Z,93.86
2022-08-03T21:16:51.891Z,94.29
2022-08-03T21:19:21.176Z,94.76
2022-08-03T21:21:49.265Z,95.76
2022-08-03T21:24:16.549Z,95.62
2022-08-03T21:26:47.557Z,95.96
2022-08-03T21:29:17.007Z,95.50
2022-08-03T21:31:44.291Z,95.89
2022-08-03T21:34:11.062Z,96.15
2022-08-03T21:36:38.105Z,96.18
2022-08-03T21:39:08.160Z,95.64
2022-08-03T21:41:37.190Z,94.88
2022-08-03T21:44:05.324Z,95.47
2022-08-03T21:46:38.020Z,96.49
2022-08-03T21:50:04.247Z,96.58
2022-08-03T21:51:59.159Z,96.76
2022-08-03T21:54:33.665Z,96.96
2022-08-03T21:57:04.770Z,97.60
2022-08-03T21:59:37.210Z,97.95
2022-08-03T22:02:04.462Z,98.13
2022-08-03T22:04:50.569Z,98.80
2022-08-03T22:07:23.640Z,99.71
2022-08-03T22:09:52.276Z,99.34
2022-08-03T22:12:26.746Z,98.98
2022-08-03T22:15:00.801Z,99.46
2022-08-03T22:17:55.571Z,99.42
2022-08-03T22:20:16.343Z,99.30
2022-08-03T22:22:55.331Z,99.02
2022-08-03T22:25:29.330Z,97.09
2022-08-03T22:27:57.545Z,94.26
2022-08-03T22:30:24.471Z,91.49
2022-08-03T22:32:54.106Z,89.59
2022-08-03T22:35:24.052Z,88.66
2022-08-03T22:37:54.089Z,88.19
2022-08-03T22:40:21.345Z,88.51
2022-08-03T22:42:52.218Z,89.15
2022-08-03T22:46:38.305Z,90.50
2022-08-03T22:49:05.247Z,91.24
2022-08-03T22:51:33.997Z,91.29
2022-08-03T22:54:01.618Z,92.31
2022-08-03T22:56:32.110Z,92.84
2022-08-03T22:58:59.766Z,93.52
2022-08-03T23:01:28.235Z,93.81
2022-08-03T23:04:02.476Z,94.03
2022-08-03T23:06:35.773Z,93.49
2022-08-03T23:09:11.524Z,93.61
2022-08-03T23:11:43.008Z,93.61
2022-08-03T23:14:18.959Z,93.85
2022-08-03T23:16:47.467Z,93.98
2022-08-03T23:19:17.256Z,95.22
2022-08-03T23:22:03.988Z,96.08
2022-08-03T23:24:36.329Z,96.92
2022-08-03T23:27:04.917Z,97.18
2022-08-03T23:29:34.351Z,97.48
2022-08-03T23:32:02.204Z,98.52
2022-08-03T23:34:50.152Z,99.42
2022-08-03T23:37:18.156Z,100.00
2022-08-03T23:39:47.565Z,99.15
2022-08-03T23:42:19.037Z,98.87
2022-08-03T23:44:46.801Z,99.88
2022-08-03T23:47:13.900Z,99.79
2022-08-03T23:49:40.520Z,100.00
2022-08-03T23:52:07.405Z,98.77
2022-08-03T23:54:52.668Z,97.57
2022-08-03T23:57:28.369Z,96.79
